EJU71QM EGAA-LEPA
Flight info
| Callsign | EJU71QM |
|---|---|
| Flight time | 2h 32m |
| Altitude | 37000 |
| Route | LISBO DCT RINGA DCT BABGU DCT ETIGA DCT INKOB Q39 NOMSU UQ4 WAL L151 KIDLI UN859 SOPIL DCT BALAN DCT EVPOK DCT NARAK DCT GAI DCT LOMRA DCT ROCAN DCT IBRAP DCT LUKEV DCT LORES |
| Aircraft | A320/M-SDE2E3FGHIJ1RWXYZ/LB1 |
Departure
| Time | 2026-05-05 20:57 |
|---|---|
| Airport | Belfast International Airport (EGAA) |
Arrival
| Time | 2026-05-05 23:29 |
|---|---|
| Airport | Palma de Mallorca Airport (LEPA) |
| Time | Latitude | Longitude | Altitude | Speed | Heading |
|---|---|---|---|---|---|
| 2026-05-05 20:27 | 54.66059 | -6.21790 | 272 ft | 0 kts | 284° |
| 2026-05-05 20:47 | 54.66055 | -6.21769 | 275 ft | 4 kts | 284° |
| 2026-05-05 20:48 | 54.66048 | -6.21724 | 275 ft | 4 kts | 285° |
| 2026-05-05 20:48 | 54.66043 | -6.21688 | 276 ft | 4 kts | 289° |
| 2026-05-05 20:48 | 54.66029 | -6.21652 | 280 ft | 4 kts | 328° |
| 2026-05-05 20:48 | 54.66006 | -6.21632 | 277 ft | 2 kts | 335° |
| 2026-05-05 20:49 | 54.65984 | -6.21614 | 277 ft | 4 kts | 335° |
| 2026-05-05 20:49 | 54.65962 | -6.21594 | 276 ft | 4 kts | 316° |
| 2026-05-05 20:49 | 54.65950 | -6.21558 | 272 ft | 4 kts | 275° |
| 2026-05-05 20:49 | 54.65952 | -6.21513 | 274 ft | 4 kts | 252° |
| 2026-05-05 20:50 | 54.65962 | -6.21470 | 273 ft | 3 kts | 245° |
| 2026-05-05 20:50 | 54.65964 | -6.21463 | 276 ft | 0 kts | 245° |
| 2026-05-05 20:52 | 54.65954 | -6.21499 | 278 ft | 9 kts | 245° |
| 2026-05-05 20:52 | 54.65924 | -6.21611 | 272 ft | 11 kts | 245° |
| 2026-05-05 20:53 | 54.65895 | -6.21720 | 272 ft | 9 kts | 245° |
| 2026-05-05 20:53 | 54.65871 | -6.21809 | 272 ft | 8 kts | 245° |
| 2026-05-05 20:53 | 54.65844 | -6.21907 | 274 ft | 12 kts | 245° |
| 2026-05-05 20:53 | 54.65804 | -6.22059 | 274 ft | 15 kts | 245° |
| 2026-05-05 20:54 | 54.65772 | -6.22236 | 272 ft | 18 kts | 261° |
| 2026-05-05 20:54 | 54.65756 | -6.22456 | 272 ft | 19 kts | 263° |
| 2026-05-05 20:54 | 54.65743 | -6.22690 | 272 ft | 20 kts | 266° |
| 2026-05-05 20:54 | 54.65702 | -6.22921 | 275 ft | 21 kts | 238° |
| 2026-05-05 20:55 | 54.65619 | -6.23115 | 272 ft | 20 kts | 234° |
| 2026-05-05 20:55 | 54.65537 | -6.23305 | 273 ft | 19 kts | 228° |
| 2026-05-05 20:55 | 54.65449 | -6.23378 | 272 ft | 12 kts | 201° |
| 2026-05-05 20:55 | 54.65377 | -6.23409 | 272 ft | 10 kts | 174° |
| 2026-05-05 20:56 | 54.65320 | -6.23363 | 272 ft | 8 kts | 154° |
| 2026-05-05 20:56 | 54.65284 | -6.23309 | 272 ft | 6 kts | 91° |
| 2026-05-05 20:56 | 54.65320 | -6.23177 | 272 ft | 34 kts | 65° |
| 2026-05-05 20:56 | 54.65535 | -6.22377 | 272 ft | 109 kts | 65° |
| 2026-05-05 20:57 | 54.65935 | -6.20881 | 357 ft | 157 kts | 63° |
| 2026-05-05 20:57 | 54.66398 | -6.19158 | 1040 ft | 160 kts | 59° |
| 2026-05-05 20:57 | 54.66884 | -6.17389 | 1805 ft | 166 kts | 63° |
| 2026-05-05 20:57 | 54.66990 | -6.15301 | 2159 ft | 194 kts | 104° |
| 2026-05-05 20:58 | 54.66225 | -6.13198 | 2429 ft | 222 kts | 126° |
| 2026-05-05 20:58 | 54.65205 | -6.11008 | 2802 ft | 246 kts | 126° |
| 2026-05-05 20:58 | 54.64085 | -6.08630 | 3419 ft | 260 kts | 127° |
| 2026-05-05 20:58 | 54.62936 | -6.06206 | 4368 ft | 261 kts | 127° |
| 2026-05-05 20:59 | 54.61789 | -6.03775 | 5296 ft | 262 kts | 128° |
| 2026-05-05 20:59 | 54.60643 | -6.01329 | 6173 ft | 265 kts | 128° |
| 2026-05-05 20:59 | 54.59474 | -5.98831 | 6935 ft | 271 kts | 128° |
| 2026-05-05 20:59 | 54.58271 | -5.96256 | 7648 ft | 278 kts | 128° |
| 2026-05-05 21:00 | 54.57045 | -5.93634 | 8369 ft | 284 kts | 128° |
| 2026-05-05 21:00 | 54.55790 | -5.90950 | 9078 ft | 291 kts | 129° |
| 2026-05-05 21:00 | 54.54507 | -5.88210 | 9833 ft | 297 kts | 129° |
| 2026-05-05 21:00 | 54.53194 | -5.85406 | 10412 ft | 309 kts | 129° |
| 2026-05-05 21:01 | 54.51798 | -5.82426 | 10622 ft | 332 kts | 129° |
| 2026-05-05 21:01 | 54.50310 | -5.79262 | 11032 ft | 345 kts | 129° |
| 2026-05-05 21:01 | 54.48784 | -5.76023 | 11676 ft | 351 kts | 129° |
| 2026-05-05 21:01 | 54.47239 | -5.72744 | 12351 ft | 355 kts | 129° |
| 2026-05-05 21:02 | 54.45673 | -5.69423 | 13025 ft | 360 kts | 129° |
| 2026-05-05 21:02 | 54.44109 | -5.66110 | 13702 ft | 364 kts | 130° |
| 2026-05-05 21:02 | 54.42503 | -5.62718 | 14277 ft | 368 kts | 130° |
| 2026-05-05 21:02 | 54.40884 | -5.59295 | 14860 ft | 371 kts | 130° |
| 2026-05-05 21:03 | 54.39269 | -5.55822 | 15471 ft | 374 kts | 128° |
| 2026-05-05 21:03 | 54.37723 | -5.52208 | 16081 ft | 377 kts | 126° |
| 2026-05-05 21:03 | 54.36225 | -5.48493 | 16680 ft | 380 kts | 125° |
| 2026-05-05 21:03 | 54.34740 | -5.44723 | 17278 ft | 383 kts | 124° |
| 2026-05-05 21:04 | 54.33248 | -5.40927 | 17863 ft | 386 kts | 125° |
| 2026-05-05 21:04 | 54.31732 | -5.37110 | 18430 ft | 389 kts | 125° |
| 2026-05-05 21:04 | 54.30190 | -5.33279 | 18931 ft | 392 kts | 126° |
| 2026-05-05 21:04 | 54.28626 | -5.29436 | 19432 ft | 395 kts | 126° |
| 2026-05-05 21:05 | 54.27020 | -5.25610 | 19915 ft | 397 kts | 128° |
| 2026-05-05 21:05 | 54.25314 | -5.21878 | 20428 ft | 399 kts | 130° |
| 2026-05-05 21:05 | 54.23538 | -5.18207 | 20910 ft | 402 kts | 131° |
| 2026-05-05 21:05 | 54.21727 | -5.14559 | 21384 ft | 404 kts | 131° |
| 2026-05-05 21:06 | 54.19901 | -5.10896 | 21859 ft | 406 kts | 131° |
| 2026-05-05 21:06 | 54.18069 | -5.07193 | 22339 ft | 409 kts | 131° |
| 2026-05-05 21:06 | 54.16240 | -5.03457 | 22799 ft | 412 kts | 131° |
| 2026-05-05 21:06 | 54.14409 | -4.99687 | 23240 ft | 414 kts | 131° |
| 2026-05-05 21:07 | 54.12570 | -4.95881 | 23662 ft | 417 kts | 131° |
| 2026-05-05 21:07 | 54.10725 | -4.92053 | 24022 ft | 420 kts | 131° |
| 2026-05-05 21:07 | 54.08867 | -4.88199 | 24389 ft | 422 kts | 131° |
| 2026-05-05 21:07 | 54.06994 | -4.84334 | 24752 ft | 424 kts | 131° |
| 2026-05-05 21:08 | 54.05107 | -4.80458 | 25105 ft | 426 kts | 131° |
| 2026-05-05 21:08 | 54.03225 | -4.76545 | 25457 ft | 429 kts | 130° |
| 2026-05-05 21:08 | 54.01390 | -4.72532 | 25808 ft | 431 kts | 129° |
| 2026-05-05 21:08 | 53.99588 | -4.68451 | 26184 ft | 433 kts | 128° |
| 2026-05-05 21:09 | 53.97791 | -4.64330 | 26528 ft | 435 kts | 128° |
| 2026-05-05 21:09 | 53.95988 | -4.60202 | 26875 ft | 437 kts | 128° |
| 2026-05-05 21:09 | 53.94162 | -4.56056 | 27196 ft | 439 kts | 129° |
| 2026-05-05 21:09 | 53.92322 | -4.51918 | 27519 ft | 441 kts | 129° |
| 2026-05-05 21:10 | 53.90460 | -4.47768 | 27826 ft | 443 kts | 129° |
| 2026-05-05 21:10 | 53.88585 | -4.43612 | 28158 ft | 445 kts | 129° |
| 2026-05-05 21:10 | 53.86703 | -4.39444 | 28478 ft | 447 kts | 129° |
| 2026-05-05 21:10 | 53.84863 | -4.35188 | 28787 ft | 449 kts | 127° |
| 2026-05-05 21:11 | 53.83094 | -4.30891 | 29092 ft | 452 kts | 126° |
| 2026-05-05 21:11 | 53.81334 | -4.26485 | 29387 ft | 454 kts | 126° |
| 2026-05-05 21:11 | 53.79569 | -4.22042 | 29672 ft | 456 kts | 126° |
| 2026-05-05 21:11 | 53.77786 | -4.17593 | 29970 ft | 457 kts | 126° |
| 2026-05-05 21:12 | 53.75983 | -4.13154 | 30232 ft | 459 kts | 126° |
| 2026-05-05 21:12 | 53.74160 | -4.08714 | 30466 ft | 461 kts | 126° |
| 2026-05-05 21:12 | 53.72324 | -4.04271 | 30703 ft | 462 kts | 127° |
| 2026-05-05 21:12 | 53.70473 | -3.99816 | 30939 ft | 464 kts | 127° |
| 2026-05-05 21:13 | 53.68621 | -3.95372 | 31260 ft | 463 kts | 127° |
| 2026-05-05 21:13 | 53.66774 | -3.90942 | 31581 ft | 461 kts | 127° |
| 2026-05-05 21:13 | 53.64931 | -3.86519 | 31916 ft | 460 kts | 127° |
| 2026-05-05 21:13 | 53.63094 | -3.82111 | 32241 ft | 459 kts | 127° |
| 2026-05-05 21:14 | 53.61259 | -3.77715 | 32578 ft | 459 kts | 127° |
| 2026-05-05 21:14 | 53.59425 | -3.73323 | 32896 ft | 458 kts | 127° |
| 2026-05-05 21:14 | 53.57596 | -3.68943 | 33219 ft | 457 kts | 127° |
| 2026-05-05 21:14 | 53.55767 | -3.64574 | 33545 ft | 456 kts | 127° |
| 2026-05-05 21:15 | 53.53937 | -3.60218 | 33860 ft | 456 kts | 127° |
| 2026-05-05 21:15 | 53.52105 | -3.55879 | 34153 ft | 455 kts | 127° |
| 2026-05-05 21:15 | 53.50273 | -3.51547 | 34407 ft | 455 kts | 127° |
| 2026-05-05 21:15 | 53.48445 | -3.47222 | 34651 ft | 454 kts | 127° |
| 2026-05-05 21:16 | 53.46754 | -3.42736 | 34878 ft | 456 kts | 119° |
| 2026-05-05 21:16 | 53.45423 | -3.37911 | 35089 ft | 456 kts | 115° |
| 2026-05-05 21:16 | 53.44167 | -3.33019 | 35313 ft | 456 kts | 115° |
| 2026-05-05 21:16 | 53.42915 | -3.28123 | 35529 ft | 456 kts | 114° |
| 2026-05-05 21:17 | 53.41669 | -3.23233 | 35739 ft | 456 kts | 114° |
| 2026-05-05 21:17 | 53.40280 | -3.18473 | 35940 ft | 454 kts | 123° |
| 2026-05-05 21:17 | 53.38475 | -3.14155 | 36131 ft | 452 kts | 132° |
| 2026-05-05 21:17 | 53.36290 | -3.10413 | 36330 ft | 449 kts | 142° |
| 2026-05-05 21:18 | 53.33805 | -3.07275 | 36499 ft | 447 kts | 148° |
| 2026-05-05 21:18 | 53.31241 | -3.04349 | 36681 ft | 447 kts | 148° |
| 2026-05-05 21:18 | 53.28672 | -3.01423 | 36870 ft | 446 kts | 148° |
| 2026-05-05 21:18 | 53.26105 | -2.98509 | 37024 ft | 447 kts | 148° |
| 2026-05-05 21:19 | 53.20972 | -2.92695 | 37051 ft | 446 kts | 148° |
| 2026-05-05 21:19 | 53.15841 | -2.86892 | 37057 ft | 445 kts | 148° |
| 2026-05-05 21:20 | 53.10711 | -2.81103 | 37051 ft | 445 kts | 148° |
| 2026-05-05 21:20 | 53.05576 | -2.75324 | 37045 ft | 445 kts | 148° |
| 2026-05-05 21:21 | 53.00475 | -2.69604 | 37040 ft | 446 kts | 148° |
| 2026-05-05 21:21 | 52.95330 | -2.63862 | 37026 ft | 446 kts | 148° |
| 2026-05-05 21:22 | 52.90184 | -2.58125 | 37027 ft | 446 kts | 148° |
| 2026-05-05 21:22 | 52.85030 | -2.52405 | 37035 ft | 446 kts | 148° |
| 2026-05-05 21:23 | 52.79877 | -2.46697 | 37040 ft | 446 kts | 148° |
| 2026-05-05 21:23 | 52.74730 | -2.40996 | 37042 ft | 446 kts | 148° |
| 2026-05-05 21:24 | 52.69585 | -2.35316 | 37049 ft | 445 kts | 148° |
| 2026-05-05 21:24 | 52.64427 | -2.29654 | 37048 ft | 445 kts | 148° |
| 2026-05-05 21:25 | 52.59266 | -2.24005 | 37052 ft | 445 kts | 148° |
| 2026-05-05 21:25 | 52.54106 | -2.18363 | 37049 ft | 445 kts | 148° |
| 2026-05-05 21:26 | 52.48947 | -2.12739 | 37037 ft | 445 kts | 148° |
| 2026-05-05 21:26 | 52.43781 | -2.07129 | 37032 ft | 445 kts | 148° |
| 2026-05-05 21:27 | 52.38642 | -2.01562 | 37035 ft | 446 kts | 148° |
| 2026-05-05 21:27 | 52.33468 | -1.95968 | 37026 ft | 446 kts | 148° |
| 2026-05-05 21:28 | 52.28290 | -1.90395 | 37035 ft | 445 kts | 148° |
| 2026-05-05 21:28 | 52.23124 | -1.84846 | 37037 ft | 444 kts | 148° |
| 2026-05-05 21:29 | 52.17961 | -1.79313 | 37041 ft | 444 kts | 148° |
| 2026-05-05 21:29 | 52.12803 | -1.73804 | 37035 ft | 443 kts | 148° |
| 2026-05-05 21:30 | 52.07641 | -1.68308 | 37033 ft | 443 kts | 148° |
| 2026-05-05 21:30 | 52.02484 | -1.62827 | 37016 ft | 443 kts | 148° |
| 2026-05-05 21:31 | 51.97329 | -1.57362 | 37015 ft | 443 kts | 148° |
| 2026-05-05 21:31 | 51.93038 | -1.52832 | 37013 ft | 443 kts | 148° |
| 2026-05-05 21:32 | 51.87875 | -1.47398 | 37012 ft | 443 kts | 148° |
| 2026-05-05 21:32 | 51.82706 | -1.41978 | 37015 ft | 442 kts | 149° |
| 2026-05-05 21:33 | 51.77492 | -1.36743 | 37016 ft | 440 kts | 155° |
| 2026-05-05 21:33 | 51.71774 | -1.33406 | 37018 ft | 436 kts | 164° |
| 2026-05-05 21:34 | 51.65986 | -1.30481 | 37015 ft | 436 kts | 164° |
| 2026-05-05 21:34 | 51.60199 | -1.27563 | 37017 ft | 436 kts | 164° |
| 2026-05-05 21:35 | 51.54416 | -1.24641 | 37011 ft | 435 kts | 164° |
| 2026-05-05 21:35 | 51.48659 | -1.21610 | 37010 ft | 436 kts | 158° |
| 2026-05-05 21:36 | 51.43138 | -1.17549 | 37004 ft | 436 kts | 156° |
| 2026-05-05 21:36 | 51.37621 | -1.13478 | 36996 ft | 436 kts | 156° |
| 2026-05-05 21:37 | 51.32104 | -1.09433 | 36980 ft | 437 kts | 156° |
| 2026-05-05 21:37 | 51.26576 | -1.05396 | 36979 ft | 437 kts | 156° |
| 2026-05-05 21:38 | 51.21043 | -1.01366 | 36976 ft | 437 kts | 156° |
| 2026-05-05 21:38 | 51.15502 | -0.97351 | 36978 ft | 437 kts | 157° |
| 2026-05-05 21:39 | 51.10002 | -0.93357 | 36984 ft | 437 kts | 156° |
| 2026-05-05 21:39 | 51.04470 | -0.89344 | 36989 ft | 437 kts | 157° |
| 2026-05-05 21:40 | 50.98939 | -0.85346 | 36991 ft | 437 kts | 157° |
| 2026-05-05 21:40 | 50.93412 | -0.81367 | 36981 ft | 436 kts | 157° |
| 2026-05-05 21:41 | 50.87876 | -0.77403 | 36986 ft | 436 kts | 157° |
| 2026-05-05 21:41 | 50.82588 | -0.72723 | 36973 ft | 437 kts | 148° |
| 2026-05-05 21:42 | 50.77489 | -0.67492 | 36982 ft | 437 kts | 148° |
| 2026-05-05 21:42 | 50.72376 | -0.62296 | 36979 ft | 437 kts | 148° |
| 2026-05-05 21:43 | 50.67263 | -0.57117 | 36976 ft | 437 kts | 148° |
| 2026-05-05 21:43 | 50.62144 | -0.51940 | 36984 ft | 437 kts | 148° |
| 2026-05-05 21:44 | 50.57026 | -0.46788 | 36977 ft | 437 kts | 148° |
| 2026-05-05 21:44 | 50.51905 | -0.41646 | 36973 ft | 437 kts | 148° |
| 2026-05-05 21:45 | 50.46791 | -0.36513 | 36965 ft | 436 kts | 148° |
| 2026-05-05 21:45 | 50.41673 | -0.31378 | 36972 ft | 436 kts | 148° |
| 2026-05-05 21:46 | 50.36555 | -0.26267 | 36977 ft | 436 kts | 148° |
| 2026-05-05 21:46 | 50.31430 | -0.21180 | 36967 ft | 436 kts | 148° |
| 2026-05-05 21:47 | 50.26338 | -0.16143 | 36973 ft | 436 kts | 148° |
| 2026-05-05 21:47 | 50.21212 | -0.11081 | 36963 ft | 436 kts | 148° |
| 2026-05-05 21:48 | 50.16080 | -0.06028 | 36970 ft | 436 kts | 148° |
| 2026-05-05 21:48 | 50.10904 | -0.01091 | 36965 ft | 436 kts | 154° |
| 2026-05-05 21:49 | 50.05192 | 0.01890 | 36958 ft | 434 kts | 166° |
| 2026-05-05 21:49 | 49.99348 | 0.04178 | 36971 ft | 433 kts | 166° |
| 2026-05-05 21:50 | 49.93519 | 0.06469 | 36968 ft | 432 kts | 166° |
| 2026-05-05 21:50 | 49.87694 | 0.08757 | 36965 ft | 432 kts | 166° |
| 2026-05-05 21:51 | 49.81865 | 0.11040 | 36956 ft | 432 kts | 166° |
| 2026-05-05 21:51 | 49.76040 | 0.13311 | 36945 ft | 431 kts | 166° |
| 2026-05-05 21:52 | 49.67309 | 0.16719 | 36934 ft | 432 kts | 166° |
| 2026-05-05 21:53 | 49.61486 | 0.19044 | 36917 ft | 432 kts | 166° |
| 2026-05-05 21:53 | 49.55664 | 0.21411 | 36924 ft | 433 kts | 165° |
| 2026-05-05 21:54 | 49.49847 | 0.23765 | 36931 ft | 432 kts | 166° |
| 2026-05-05 21:54 | 49.44057 | 0.26084 | 36918 ft | 433 kts | 166° |
| 2026-05-05 21:55 | 49.38220 | 0.28406 | 36919 ft | 434 kts | 166° |
| 2026-05-05 21:55 | 49.32378 | 0.30736 | 36938 ft | 434 kts | 166° |
| 2026-05-05 21:56 | 49.26542 | 0.33105 | 36923 ft | 434 kts | 165° |
| 2026-05-05 21:56 | 49.20717 | 0.35578 | 36933 ft | 435 kts | 165° |
| 2026-05-05 21:57 | 49.14881 | 0.38070 | 36937 ft | 435 kts | 165° |
| 2026-05-05 21:57 | 49.09042 | 0.40535 | 36947 ft | 435 kts | 165° |
| 2026-05-05 21:58 | 49.03199 | 0.42976 | 36949 ft | 436 kts | 165° |
| 2026-05-05 21:58 | 48.97348 | 0.45398 | 36948 ft | 436 kts | 165° |
| 2026-05-05 21:59 | 48.91502 | 0.47830 | 36964 ft | 435 kts | 165° |
| 2026-05-05 21:59 | 48.85671 | 0.50262 | 36964 ft | 434 kts | 165° |
| 2026-05-05 22:00 | 48.79846 | 0.52684 | 36946 ft | 434 kts | 165° |
| 2026-05-05 22:00 | 48.74008 | 0.55042 | 36953 ft | 434 kts | 166° |
| 2026-05-05 22:01 | 48.68159 | 0.57320 | 36951 ft | 434 kts | 166° |
| 2026-05-05 22:01 | 48.62308 | 0.59580 | 36942 ft | 434 kts | 166° |
| 2026-05-05 22:02 | 48.56467 | 0.61856 | 36948 ft | 433 kts | 166° |
| 2026-05-05 22:02 | 48.50627 | 0.64132 | 36934 ft | 434 kts | 166° |
| 2026-05-05 22:03 | 48.44798 | 0.66491 | 36945 ft | 433 kts | 165° |
| 2026-05-05 22:03 | 48.38987 | 0.68896 | 36932 ft | 433 kts | 165° |
| 2026-05-05 22:04 | 48.33174 | 0.71271 | 36938 ft | 433 kts | 165° |
| 2026-05-05 22:04 | 48.27347 | 0.73620 | 36919 ft | 433 kts | 166° |
| 2026-05-05 22:05 | 48.21518 | 0.75952 | 36921 ft | 433 kts | 166° |
| 2026-05-05 22:05 | 48.15690 | 0.78230 | 36920 ft | 433 kts | 166° |
| 2026-05-05 22:06 | 48.09892 | 0.80495 | 36913 ft | 434 kts | 166° |
| 2026-05-05 22:06 | 48.04051 | 0.82789 | 36915 ft | 434 kts | 166° |
| 2026-05-05 22:07 | 47.98206 | 0.85078 | 36903 ft | 434 kts | 166° |
| 2026-05-05 22:07 | 47.92359 | 0.87358 | 36913 ft | 434 kts | 166° |
| 2026-05-05 22:08 | 47.86510 | 0.89632 | 36900 ft | 435 kts | 166° |
| 2026-05-05 22:08 | 47.80659 | 0.91904 | 36914 ft | 435 kts | 166° |
| 2026-05-05 22:09 | 47.74805 | 0.94169 | 36901 ft | 435 kts | 166° |
| 2026-05-05 22:09 | 47.68943 | 0.96429 | 36902 ft | 435 kts | 166° |
| 2026-05-05 22:10 | 47.63085 | 0.98691 | 36900 ft | 435 kts | 166° |
| 2026-05-05 22:10 | 47.57222 | 1.00949 | 36885 ft | 435 kts | 166° |
| 2026-05-05 22:11 | 47.51350 | 1.03202 | 36882 ft | 436 kts | 166° |
| 2026-05-05 22:11 | 47.45468 | 1.05451 | 36892 ft | 437 kts | 167° |
| 2026-05-05 22:12 | 47.39454 | 1.06371 | 36886 ft | 435 kts | 182° |
| 2026-05-05 22:12 | 47.33396 | 1.06195 | 36893 ft | 435 kts | 181° |
| 2026-05-05 22:13 | 47.27339 | 1.06054 | 36901 ft | 435 kts | 181° |
| 2026-05-05 22:13 | 47.21320 | 1.05926 | 36899 ft | 435 kts | 181° |
| 2026-05-05 22:14 | 47.15268 | 1.05787 | 36902 ft | 435 kts | 181° |
| 2026-05-05 22:14 | 47.09219 | 1.05644 | 36906 ft | 434 kts | 181° |
| 2026-05-05 22:15 | 47.03180 | 1.05506 | 36916 ft | 434 kts | 181° |
| 2026-05-05 22:15 | 46.97143 | 1.05307 | 36911 ft | 434 kts | 182° |
| 2026-05-05 22:16 | 46.91115 | 1.05024 | 36910 ft | 434 kts | 182° |
| 2026-05-05 22:16 | 46.85087 | 1.04737 | 36909 ft | 434 kts | 182° |
| 2026-05-05 22:17 | 46.79051 | 1.04474 | 36904 ft | 434 kts | 182° |
| 2026-05-05 22:17 | 46.73019 | 1.04219 | 36904 ft | 434 kts | 182° |
| 2026-05-05 22:18 | 46.67028 | 1.03971 | 36912 ft | 434 kts | 182° |
| 2026-05-05 22:18 | 46.60994 | 1.03721 | 36917 ft | 434 kts | 182° |
| 2026-05-05 22:19 | 46.54964 | 1.03461 | 36911 ft | 434 kts | 182° |
| 2026-05-05 22:19 | 46.48966 | 1.04190 | 36921 ft | 435 kts | 168° |
| 2026-05-05 22:20 | 46.43077 | 1.06181 | 36922 ft | 435 kts | 168° |
| 2026-05-05 22:20 | 46.37178 | 1.08152 | 36922 ft | 435 kts | 168° |
| 2026-05-05 22:21 | 46.31284 | 1.10113 | 36931 ft | 435 kts | 168° |
| 2026-05-05 22:21 | 46.25387 | 1.12079 | 36930 ft | 435 kts | 168° |
| 2026-05-05 22:22 | 46.20486 | 1.13710 | 36932 ft | 435 kts | 168° |
| 2026-05-05 22:22 | 46.14593 | 1.15664 | 36931 ft | 435 kts | 168° |
| 2026-05-05 22:23 | 46.08695 | 1.17609 | 36932 ft | 435 kts | 168° |
| 2026-05-05 22:23 | 46.02801 | 1.19548 | 36935 ft | 434 kts | 168° |
| 2026-05-05 22:24 | 45.96912 | 1.21489 | 36937 ft | 434 kts | 168° |
| 2026-05-05 22:24 | 45.91023 | 1.23419 | 36935 ft | 434 kts | 168° |
| 2026-05-05 22:25 | 45.85143 | 1.25346 | 36936 ft | 434 kts | 168° |
| 2026-05-05 22:25 | 45.79264 | 1.27275 | 36936 ft | 433 kts | 168° |
| 2026-05-05 22:26 | 45.73383 | 1.29196 | 36937 ft | 433 kts | 169° |
| 2026-05-05 22:26 | 45.67501 | 1.31115 | 36955 ft | 433 kts | 169° |
| 2026-05-05 22:27 | 45.61620 | 1.33020 | 36956 ft | 433 kts | 169° |
| 2026-05-05 22:27 | 45.55738 | 1.34928 | 36954 ft | 433 kts | 169° |
| 2026-05-05 22:28 | 45.49854 | 1.36829 | 36960 ft | 434 kts | 169° |
| 2026-05-05 22:28 | 45.43969 | 1.38722 | 36960 ft | 434 kts | 169° |
| 2026-05-05 22:29 | 45.38125 | 1.40608 | 36963 ft | 434 kts | 169° |
| 2026-05-05 22:29 | 45.32234 | 1.42504 | 36960 ft | 434 kts | 169° |
| 2026-05-05 22:30 | 45.26343 | 1.44393 | 36962 ft | 434 kts | 169° |
| 2026-05-05 22:30 | 45.20452 | 1.46275 | 36962 ft | 434 kts | 169° |
| 2026-05-05 22:31 | 45.14556 | 1.48153 | 36955 ft | 434 kts | 169° |
| 2026-05-05 22:31 | 45.08656 | 1.50030 | 36956 ft | 435 kts | 169° |
| 2026-05-05 22:32 | 45.02751 | 1.51912 | 36957 ft | 435 kts | 169° |
| 2026-05-05 22:32 | 44.96850 | 1.53786 | 36970 ft | 435 kts | 170° |
| 2026-05-05 22:33 | 44.90951 | 1.55658 | 36973 ft | 434 kts | 170° |
| 2026-05-05 22:33 | 44.85064 | 1.57522 | 36973 ft | 433 kts | 170° |
| 2026-05-05 22:34 | 44.79178 | 1.59370 | 36982 ft | 433 kts | 170° |
| 2026-05-05 22:34 | 44.73299 | 1.61220 | 36986 ft | 433 kts | 170° |
| 2026-05-05 22:35 | 44.67419 | 1.63068 | 36983 ft | 433 kts | 170° |
| 2026-05-05 22:35 | 44.61541 | 1.64914 | 36986 ft | 433 kts | 170° |
| 2026-05-05 22:36 | 44.55663 | 1.66752 | 36974 ft | 433 kts | 171° |
| 2026-05-05 22:36 | 44.49824 | 1.68571 | 36987 ft | 433 kts | 171° |
| 2026-05-05 22:37 | 44.43907 | 1.70419 | 36983 ft | 433 kts | 171° |
| 2026-05-05 22:37 | 44.38069 | 1.72233 | 36978 ft | 433 kts | 171° |
| 2026-05-05 22:38 | 44.32192 | 1.74052 | 36980 ft | 433 kts | 171° |
| 2026-05-05 22:38 | 44.26299 | 1.75754 | 36991 ft | 432 kts | 173° |
| 2026-05-05 22:39 | 44.20371 | 1.77054 | 36978 ft | 431 kts | 175° |
| 2026-05-05 22:39 | 44.14434 | 1.78244 | 36984 ft | 431 kts | 175° |
| 2026-05-05 22:40 | 44.08501 | 1.79501 | 36987 ft | 432 kts | 174° |
| 2026-05-05 22:40 | 44.02567 | 1.80813 | 36994 ft | 432 kts | 174° |
| 2026-05-05 22:41 | 43.96638 | 1.82132 | 36992 ft | 432 kts | 175° |
| 2026-05-05 22:41 | 43.90694 | 1.83102 | 36997 ft | 429 kts | 179° |
| 2026-05-05 22:42 | 43.84741 | 1.83583 | 37004 ft | 428 kts | 181° |
| 2026-05-05 22:42 | 43.78790 | 1.84020 | 37001 ft | 428 kts | 180° |
| 2026-05-05 22:43 | 43.72842 | 1.84561 | 37007 ft | 428 kts | 180° |
| 2026-05-05 22:43 | 43.66937 | 1.85151 | 37010 ft | 428 kts | 180° |
| 2026-05-05 22:44 | 43.60994 | 1.85742 | 37003 ft | 428 kts | 180° |
| 2026-05-05 22:44 | 43.55054 | 1.86320 | 37012 ft | 428 kts | 180° |
| 2026-05-05 22:45 | 43.49117 | 1.86883 | 37016 ft | 428 kts | 180° |
| 2026-05-05 22:45 | 43.43181 | 1.87451 | 37017 ft | 428 kts | 180° |
| 2026-05-05 22:46 | 43.37248 | 1.88024 | 37009 ft | 427 kts | 180° |
| 2026-05-05 22:46 | 43.31317 | 1.88587 | 37012 ft | 427 kts | 180° |
| 2026-05-05 22:47 | 43.25383 | 1.89158 | 37011 ft | 427 kts | 180° |
| 2026-05-05 22:47 | 43.19453 | 1.89728 | 37002 ft | 427 kts | 181° |
| 2026-05-05 22:48 | 43.13524 | 1.90298 | 37010 ft | 427 kts | 181° |
| 2026-05-05 22:48 | 43.07597 | 1.90864 | 37013 ft | 427 kts | 181° |
| 2026-05-05 22:49 | 43.01671 | 1.91417 | 37012 ft | 426 kts | 180° |
| 2026-05-05 22:49 | 42.95760 | 1.91971 | 37012 ft | 425 kts | 181° |
| 2026-05-05 22:50 | 42.89856 | 1.92531 | 37021 ft | 425 kts | 181° |
| 2026-05-05 22:50 | 42.84001 | 1.93085 | 37027 ft | 425 kts | 181° |
| 2026-05-05 22:51 | 42.78108 | 1.93640 | 37031 ft | 424 kts | 181° |
| 2026-05-05 22:51 | 42.72219 | 1.94192 | 37027 ft | 424 kts | 181° |
| 2026-05-05 22:52 | 42.66339 | 1.95018 | 37021 ft | 430 kts | 172° |
| 2026-05-05 22:52 | 42.60532 | 1.97092 | 37019 ft | 431 kts | 170° |
| 2026-05-05 22:53 | 42.54737 | 1.99188 | 36994 ft | 431 kts | 171° |
| 2026-05-05 22:53 | 42.48938 | 2.01273 | 36994 ft | 431 kts | 171° |
| 2026-05-05 22:54 | 42.43138 | 2.03348 | 36997 ft | 431 kts | 171° |
| 2026-05-05 22:54 | 42.37338 | 2.05431 | 36970 ft | 431 kts | 171° |
| 2026-05-05 22:55 | 42.31544 | 2.07498 | 36971 ft | 431 kts | 171° |
| 2026-05-05 22:55 | 42.25748 | 2.09550 | 36974 ft | 431 kts | 172° |
| 2026-05-05 22:56 | 42.19948 | 2.11600 | 36975 ft | 431 kts | 172° |
| 2026-05-05 22:56 | 42.14189 | 2.13629 | 36970 ft | 431 kts | 172° |
| 2026-05-05 22:57 | 42.08355 | 2.15697 | 36971 ft | 431 kts | 172° |
| 2026-05-05 22:57 | 42.02561 | 2.17746 | 36973 ft | 431 kts | 172° |
| 2026-05-05 22:58 | 41.96803 | 2.19767 | 36981 ft | 430 kts | 172° |
| 2026-05-05 22:58 | 41.91009 | 2.21801 | 36953 ft | 430 kts | 173° |
| 2026-05-05 22:59 | 41.85221 | 2.23837 | 36963 ft | 430 kts | 173° |
| 2026-05-05 22:59 | 41.79433 | 2.25856 | 36963 ft | 430 kts | 173° |
| 2026-05-05 23:00 | 41.70752 | 2.28876 | 36945 ft | 429 kts | 173° |
| 2026-05-05 23:00 | 41.64978 | 2.30894 | 36954 ft | 428 kts | 173° |
| 2026-05-05 23:01 | 41.59216 | 2.32912 | 36968 ft | 428 kts | 173° |
| 2026-05-05 23:01 | 41.53465 | 2.34909 | 36930 ft | 427 kts | 173° |
| 2026-05-05 23:02 | 41.47722 | 2.36897 | 36955 ft | 426 kts | 173° |
| 2026-05-05 23:02 | 41.41983 | 2.38874 | 36961 ft | 426 kts | 173° |
| 2026-05-05 23:03 | 41.36264 | 2.40848 | 36373 ft | 423 kts | 173° |
| 2026-05-05 23:03 | 41.33418 | 2.41833 | 35792 ft | 422 kts | 174° |
| 2026-05-05 23:03 | 41.30599 | 2.42810 | 35319 ft | 416 kts | 174° |
| 2026-05-05 23:04 | 41.27814 | 2.43775 | 34910 ft | 411 kts | 175° |
| 2026-05-05 23:04 | 41.25063 | 2.44724 | 34495 ft | 406 kts | 175° |
| 2026-05-05 23:04 | 41.22347 | 2.45662 | 34091 ft | 401 kts | 175° |
| 2026-05-05 23:04 | 41.19665 | 2.46588 | 33644 ft | 396 kts | 176° |
| 2026-05-05 23:05 | 41.17009 | 2.47500 | 33154 ft | 392 kts | 176° |
| 2026-05-05 23:05 | 41.14377 | 2.48402 | 32658 ft | 389 kts | 176° |
| 2026-05-05 23:05 | 41.11765 | 2.49297 | 32163 ft | 386 kts | 176° |
| 2026-05-05 23:05 | 41.09174 | 2.50180 | 31648 ft | 383 kts | 176° |
| 2026-05-05 23:06 | 41.06601 | 2.51057 | 31165 ft | 380 kts | 176° |
| 2026-05-05 23:06 | 41.04047 | 2.51928 | 30692 ft | 378 kts | 176° |
| 2026-05-05 23:06 | 41.01509 | 2.52792 | 30219 ft | 375 kts | 176° |
| 2026-05-05 23:06 | 40.98991 | 2.53651 | 29729 ft | 373 kts | 176° |
| 2026-05-05 23:07 | 40.96526 | 2.54493 | 29215 ft | 370 kts | 176° |
| 2026-05-05 23:07 | 40.94043 | 2.55339 | 28709 ft | 367 kts | 176° |
| 2026-05-05 23:07 | 40.91579 | 2.56177 | 28206 ft | 364 kts | 176° |
| 2026-05-05 23:07 | 40.89137 | 2.57010 | 27721 ft | 361 kts | 176° |
| 2026-05-05 23:08 | 40.86678 | 2.57848 | 27160 ft | 359 kts | 176° |
| 2026-05-05 23:08 | 40.84295 | 2.58658 | 26673 ft | 357 kts | 176° |
| 2026-05-05 23:08 | 40.81896 | 2.59474 | 26208 ft | 355 kts | 176° |
| 2026-05-05 23:08 | 40.79513 | 2.60283 | 25755 ft | 353 kts | 176° |
| 2026-05-05 23:09 | 40.77143 | 2.61083 | 25311 ft | 350 kts | 176° |
| 2026-05-05 23:09 | 40.74791 | 2.61877 | 24873 ft | 348 kts | 176° |
| 2026-05-05 23:09 | 40.72454 | 2.62667 | 24442 ft | 346 kts | 176° |
| 2026-05-05 23:09 | 40.70134 | 2.63452 | 24020 ft | 343 kts | 176° |
| 2026-05-05 23:10 | 40.67826 | 2.64235 | 23604 ft | 341 kts | 176° |
| 2026-05-05 23:10 | 40.65534 | 2.65012 | 23138 ft | 339 kts | 176° |
| 2026-05-05 23:10 | 40.63253 | 2.65783 | 22684 ft | 337 kts | 176° |
| 2026-05-05 23:10 | 40.60993 | 2.66546 | 22253 ft | 334 kts | 176° |
| 2026-05-05 23:11 | 40.58750 | 2.67301 | 21804 ft | 331 kts | 176° |
| 2026-05-05 23:11 | 40.56525 | 2.68048 | 21424 ft | 328 kts | 176° |
| 2026-05-05 23:11 | 40.54326 | 2.68792 | 21028 ft | 325 kts | 175° |
| 2026-05-05 23:11 | 40.52142 | 2.69529 | 20629 ft | 323 kts | 176° |
| 2026-05-05 23:12 | 40.49988 | 2.70402 | 20236 ft | 328 kts | 168° |
| 2026-05-05 23:12 | 40.48609 | 2.71242 | 19985 ft | 333 kts | 162° |
| 2026-05-05 23:12 | 40.46586 | 2.72715 | 19605 ft | 331 kts | 161° |
| 2026-05-05 23:12 | 40.44578 | 2.74181 | 19239 ft | 329 kts | 161° |
| 2026-05-05 23:13 | 40.42583 | 2.75633 | 18854 ft | 327 kts | 161° |
| 2026-05-05 23:13 | 40.40600 | 2.77071 | 18493 ft | 325 kts | 161° |
| 2026-05-05 23:13 | 40.38625 | 2.78501 | 18141 ft | 323 kts | 161° |
| 2026-05-05 23:13 | 40.36667 | 2.79917 | 17747 ft | 321 kts | 161° |
| 2026-05-05 23:14 | 40.34715 | 2.81329 | 17351 ft | 319 kts | 160° |
| 2026-05-05 23:14 | 40.32777 | 2.82730 | 16987 ft | 317 kts | 160° |
| 2026-05-05 23:14 | 40.30852 | 2.84122 | 16620 ft | 315 kts | 160° |
| 2026-05-05 23:14 | 40.28936 | 2.85506 | 16256 ft | 314 kts | 159° |
| 2026-05-05 23:15 | 40.27031 | 2.86880 | 15925 ft | 312 kts | 159° |
| 2026-05-05 23:15 | 40.25134 | 2.88245 | 15590 ft | 310 kts | 159° |
| 2026-05-05 23:15 | 40.23247 | 2.89602 | 15250 ft | 309 kts | 159° |
| 2026-05-05 23:15 | 40.21371 | 2.90953 | 14915 ft | 306 kts | 159° |
| 2026-05-05 23:16 | 40.19510 | 2.92293 | 14611 ft | 304 kts | 159° |
| 2026-05-05 23:16 | 40.17657 | 2.93625 | 14299 ft | 303 kts | 158° |
| 2026-05-05 23:16 | 40.15817 | 2.94946 | 13990 ft | 301 kts | 158° |
| 2026-05-05 23:16 | 40.13983 | 2.96262 | 13670 ft | 300 kts | 158° |
| 2026-05-05 23:17 | 40.12160 | 2.97568 | 13319 ft | 299 kts | 158° |
| 2026-05-05 23:17 | 40.10340 | 2.98871 | 12939 ft | 298 kts | 158° |
| 2026-05-05 23:17 | 40.08524 | 3.00173 | 12565 ft | 298 kts | 158° |
| 2026-05-05 23:17 | 40.06709 | 3.01471 | 12201 ft | 297 kts | 158° |
| 2026-05-05 23:18 | 40.04898 | 3.02768 | 11825 ft | 297 kts | 158° |
| 2026-05-05 23:18 | 40.03089 | 3.04063 | 11455 ft | 296 kts | 158° |
| 2026-05-05 23:18 | 40.01280 | 3.05357 | 11070 ft | 296 kts | 157° |
| 2026-05-05 23:18 | 39.99477 | 3.06643 | 10744 ft | 294 kts | 157° |
| 2026-05-05 23:19 | 39.97686 | 3.07922 | 10415 ft | 292 kts | 156° |
| 2026-05-05 23:19 | 39.95910 | 3.09190 | 10084 ft | 291 kts | 156° |
| 2026-05-05 23:19 | 39.94116 | 3.10370 | 9716 ft | 287 kts | 163° |
| 2026-05-05 23:19 | 39.92217 | 3.11044 | 9335 ft | 280 kts | 176° |
| 2026-05-05 23:20 | 39.90320 | 3.11152 | 8987 ft | 274 kts | 188° |
| 2026-05-05 23:20 | 39.88429 | 3.10918 | 8555 ft | 273 kts | 189° |
| 2026-05-05 23:20 | 39.86510 | 3.10677 | 8134 ft | 273 kts | 189° |
| 2026-05-05 23:20 | 39.84617 | 3.10441 | 7733 ft | 273 kts | 189° |
| 2026-05-05 23:21 | 39.82731 | 3.10204 | 7336 ft | 271 kts | 189° |
| 2026-05-05 23:21 | 39.80854 | 3.09971 | 6952 ft | 271 kts | 189° |
| 2026-05-05 23:21 | 39.78977 | 3.09740 | 6543 ft | 271 kts | 189° |
| 2026-05-05 23:21 | 39.77128 | 3.09514 | 6127 ft | 270 kts | 189° |
| 2026-05-05 23:22 | 39.75259 | 3.09286 | 5746 ft | 268 kts | 188° |
| 2026-05-05 23:22 | 39.73455 | 3.09067 | 5613 ft | 251 kts | 189° |
| 2026-05-05 23:22 | 39.71830 | 3.08548 | 5401 ft | 235 kts | 207° |
| 2026-05-05 23:22 | 39.70481 | 3.07438 | 5133 ft | 227 kts | 225° |
| 2026-05-05 23:23 | 39.69494 | 3.05869 | 4794 ft | 223 kts | 240° |
| 2026-05-05 23:23 | 39.68695 | 3.04159 | 4565 ft | 218 kts | 240° |
| 2026-05-05 23:23 | 39.67919 | 3.02495 | 4216 ft | 219 kts | 240° |
| 2026-05-05 23:23 | 39.67117 | 3.00779 | 3875 ft | 219 kts | 240° |
| 2026-05-05 23:24 | 39.66353 | 2.99152 | 3739 ft | 203 kts | 240° |
| 2026-05-05 23:24 | 39.65647 | 2.97646 | 3675 ft | 186 kts | 240° |
| 2026-05-05 23:24 | 39.64993 | 2.96252 | 3508 ft | 176 kts | 240° |
| 2026-05-05 23:24 | 39.64368 | 2.94920 | 3306 ft | 170 kts | 240° |
| 2026-05-05 23:25 | 39.63759 | 2.93623 | 3090 ft | 167 kts | 240° |
| 2026-05-05 23:25 | 39.63160 | 2.92348 | 2865 ft | 164 kts | 240° |
| 2026-05-05 23:25 | 39.62571 | 2.91094 | 2656 ft | 161 kts | 241° |
| 2026-05-05 23:25 | 39.61989 | 2.89855 | 2434 ft | 160 kts | 240° |
| 2026-05-05 23:26 | 39.61412 | 2.88629 | 2224 ft | 159 kts | 241° |
| 2026-05-05 23:26 | 39.60836 | 2.87403 | 2034 ft | 159 kts | 241° |
| 2026-05-05 23:26 | 39.60259 | 2.86178 | 1805 ft | 159 kts | 242° |
| 2026-05-05 23:26 | 39.59684 | 2.84956 | 1594 ft | 159 kts | 240° |
| 2026-05-05 23:27 | 39.59107 | 2.83731 | 1366 ft | 159 kts | 240° |
| 2026-05-05 23:27 | 39.58552 | 2.82554 | 1181 ft | 148 kts | 240° |
| 2026-05-05 23:27 | 39.58027 | 2.81443 | 984 ft | 141 kts | 240° |
| 2026-05-05 23:27 | 39.57516 | 2.80359 | 793 ft | 140 kts | 239° |
| 2026-05-05 23:28 | 39.57012 | 2.79290 | 618 ft | 140 kts | 239° |
| 2026-05-05 23:28 | 39.56511 | 2.78227 | 422 ft | 139 kts | 239° |
| 2026-05-05 23:28 | 39.56000 | 2.77146 | 242 ft | 139 kts | 239° |
| 2026-05-05 23:28 | 39.55501 | 2.76082 | 63 ft | 138 kts | 239° |
| 2026-05-05 23:29 | 39.55062 | 2.75146 | 38 ft | 101 kts | 238° |
| 2026-05-05 23:29 | 39.54785 | 2.74559 | 38 ft | 53 kts | 238° |
| 2026-05-05 23:29 | 39.54619 | 2.74205 | 38 ft | 30 kts | 238° |
| 2026-05-05 23:29 | 39.54554 | 2.73970 | 38 ft | 26 kts | 262° |
| 2026-05-05 23:30 | 39.54552 | 2.73789 | 38 ft | 13 kts | 270° |
| 2026-05-05 23:30 | 39.54609 | 2.73758 | 38 ft | 11 kts | 30° |
| 2026-05-05 23:30 | 39.54647 | 2.73827 | 38 ft | 9 kts | 59° |
| 2026-05-05 23:30 | 39.54676 | 2.73891 | 37 ft | 8 kts | 59° |
| 2026-05-05 23:31 | 39.54701 | 2.73945 | 38 ft | 7 kts | 59° |
| 2026-05-05 23:31 | 39.54731 | 2.74007 | 38 ft | 9 kts | 57° |
| 2026-05-05 23:31 | 39.54765 | 2.74074 | 38 ft | 8 kts | 58° |
| 2026-05-05 23:31 | 39.54830 | 2.74122 | 38 ft | 14 kts | 344° |
| 2026-05-05 23:32 | 39.54919 | 2.74052 | 38 ft | 16 kts | 328° |
| 2026-05-05 23:32 | 39.55020 | 2.73974 | 38 ft | 18 kts | 329° |
| 2026-05-05 23:32 | 39.55132 | 2.73886 | 37 ft | 20 kts | 329° |
| 2026-05-05 23:32 | 39.55255 | 2.73789 | 38 ft | 22 kts | 328° |
| 2026-05-05 23:33 | 39.55389 | 2.73682 | 38 ft | 23 kts | 328° |
| 2026-05-05 23:33 | 39.55495 | 2.73597 | 38 ft | 11 kts | 319° |
| 2026-05-05 23:33 | 39.55478 | 2.73519 | 36 ft | 9 kts | 239° |
| 2026-05-05 23:33 | 39.55449 | 2.73456 | 38 ft | 8 kts | 239° |
| 2026-05-05 23:34 | 39.55422 | 2.73399 | 38 ft | 9 kts | 238° |
| 2026-05-05 23:34 | 39.55377 | 2.73302 | 38 ft | 16 kts | 239° |
| 2026-05-05 23:34 | 39.55311 | 2.73161 | 38 ft | 19 kts | 238° |
| 2026-05-05 23:34 | 39.55239 | 2.73015 | 38 ft | 15 kts | 237° |
| 2026-05-05 23:35 | 39.55194 | 2.72947 | 38 ft | 9 kts | 192° |
| 2026-05-05 23:35 | 39.55135 | 2.72969 | 36 ft | 4 kts | 161° |
| 2026-05-05 23:35 | 39.55128 | 2.72972 | 37 ft | 0 kts | 161° |
| 2026-05-05 23:39 | 39.55127 | 2.72972 | 37 ft | 0 kts | 161° |